EWG33T EDDS-LQSA
Flight info
| Callsign | EWG33T |
|---|---|
| Flight time | 1h 20m |
| Altitude | 35000 |
| Route | ABTAL4H ABTAL L173 RIXED Y161 MAH L173 OTT M867 VAVOR DCT RADIZ DCT GORPA/N0443F370 DCT OKSIG DCT MARIL DCT BOSNA BOSNA1N |
| Aircraft | A320/M-VGDW/C |
Departure
| Time | 2026-04-30 20:17 |
|---|---|
| Airport | Stuttgart Airport (EDDS) |
Arrival
| Time | 2026-04-30 21:37 |
|---|---|
| Airport | Sarajevo International Airport (LQSA) |
| Time | Latitude | Longitude | Altitude | Speed | Heading |
|---|---|---|---|---|---|
| 2026-04-30 19:31 | 48.68968 | 9.20355 | 1290 ft | 0 kts | 164° |
| 2026-04-30 19:41 | 48.68973 | 9.20353 | 1290 ft | 0 kts | 164° |
| 2026-04-30 20:09 | 48.68972 | 9.20353 | 1290 ft | 1 kts | 166° |
| 2026-04-30 20:09 | 48.68969 | 9.20354 | 1289 ft | 0 kts | 165° |
| 2026-04-30 20:11 | 48.68963 | 9.20356 | 1289 ft | 5 kts | 165° |
| 2026-04-30 20:11 | 48.68902 | 9.20377 | 1286 ft | 9 kts | 189° |
| 2026-04-30 20:12 | 48.68887 | 9.20297 | 1288 ft | 9 kts | 261° |
| 2026-04-30 20:12 | 48.68865 | 9.20170 | 1291 ft | 13 kts | 254° |
| 2026-04-30 20:12 | 48.68837 | 9.20027 | 1295 ft | 15 kts | 249° |
| 2026-04-30 20:13 | 48.68735 | 9.19965 | 1292 ft | 20 kts | 173° |
| 2026-04-30 20:13 | 48.68668 | 9.19993 | 1288 ft | 0 kts | 163° |
| 2026-04-30 20:14 | 48.68657 | 9.19998 | 1287 ft | 6 kts | 164° |
| 2026-04-30 20:14 | 48.68627 | 9.20011 | 1287 ft | 0 kts | 164° |
| 2026-04-30 20:15 | 48.68611 | 9.20018 | 1285 ft | 6 kts | 164° |
| 2026-04-30 20:15 | 48.68579 | 9.20075 | 1283 ft | 10 kts | 85° |
| 2026-04-30 20:15 | 48.68602 | 9.20165 | 1281 ft | 0 kts | 75° |
| 2026-04-30 20:16 | 48.68630 | 9.20315 | 1277 ft | 46 kts | 73° |
| 2026-04-30 20:16 | 48.68792 | 9.21168 | 1265 ft | 115 kts | 74° |
| 2026-04-30 20:17 | 48.69051 | 9.22531 | 1257 ft | 161 kts | 75° |
| 2026-04-30 20:17 | 48.69356 | 9.24211 | 1808 ft | 163 kts | 75° |
| 2026-04-30 20:17 | 48.69645 | 9.25887 | 2539 ft | 163 kts | 78° |
| 2026-04-30 20:17 | 48.69908 | 9.27543 | 3219 ft | 162 kts | 82° |
| 2026-04-30 20:18 | 48.70099 | 9.29181 | 3873 ft | 162 kts | 81° |
| 2026-04-30 20:18 | 48.70425 | 9.30940 | 4216 ft | 183 kts | 76° |
| 2026-04-30 20:18 | 48.70848 | 9.32895 | 4521 ft | 207 kts | 75° |
| 2026-04-30 20:18 | 48.71315 | 9.35058 | 4913 ft | 231 kts | 75° |
| 2026-04-30 20:19 | 48.71844 | 9.37625 | 5105 ft | 249 kts | 76° |
| 2026-04-30 20:19 | 48.72161 | 9.39203 | 5625 ft | 251 kts | 76° |
| 2026-04-30 20:19 | 48.72829 | 9.42595 | 6748 ft | 257 kts | 75° |
| 2026-04-30 20:19 | 48.73341 | 9.45247 | 7546 ft | 262 kts | 75° |
| 2026-04-30 20:20 | 48.73846 | 9.47895 | 8380 ft | 266 kts | 75° |
| 2026-04-30 20:20 | 48.74359 | 9.50608 | 9226 ft | 269 kts | 75° |
| 2026-04-30 20:20 | 48.74876 | 9.53359 | 10062 ft | 273 kts | 75° |
| 2026-04-30 20:20 | 48.75400 | 9.56166 | 10666 ft | 285 kts | 75° |
| 2026-04-30 20:21 | 48.75962 | 9.59178 | 10921 ft | 308 kts | 75° |
| 2026-04-30 20:21 | 48.76557 | 9.62362 | 11426 ft | 319 kts | 75° |
| 2026-04-30 20:21 | 48.77166 | 9.65618 | 12180 ft | 322 kts | 74° |
| 2026-04-30 20:21 | 48.77775 | 9.68884 | 12972 ft | 324 kts | 74° |
| 2026-04-30 20:22 | 48.78391 | 9.72194 | 13701 ft | 327 kts | 74° |
| 2026-04-30 20:22 | 48.79013 | 9.75537 | 14407 ft | 330 kts | 73° |
| 2026-04-30 20:22 | 48.79638 | 9.78894 | 15031 ft | 333 kts | 73° |
| 2026-04-30 20:22 | 48.80270 | 9.82310 | 15645 ft | 337 kts | 73° |
| 2026-04-30 20:23 | 48.80902 | 9.85742 | 16268 ft | 340 kts | 73° |
| 2026-04-30 20:23 | 48.81542 | 9.89217 | 16901 ft | 343 kts | 73° |
| 2026-04-30 20:23 | 48.82185 | 9.92715 | 17528 ft | 347 kts | 73° |
| 2026-04-30 20:23 | 48.82834 | 9.96256 | 18137 ft | 350 kts | 73° |
| 2026-04-30 20:24 | 48.83487 | 9.99826 | 18740 ft | 353 kts | 73° |
| 2026-04-30 20:24 | 48.84146 | 10.03434 | 19277 ft | 355 kts | 73° |
| 2026-04-30 20:24 | 48.84797 | 10.07015 | 19812 ft | 358 kts | 73° |
| 2026-04-30 20:24 | 48.85228 | 10.10755 | 20357 ft | 363 kts | 83° |
| 2026-04-30 20:25 | 48.84848 | 10.18470 | 21439 ft | 370 kts | 94° |
| 2026-04-30 20:25 | 48.84526 | 10.22402 | 21973 ft | 372 kts | 93° |
| 2026-04-30 20:26 | 48.83890 | 10.30209 | 22963 ft | 377 kts | 93° |
| 2026-04-30 20:26 | 48.83297 | 10.36866 | 23780 ft | 384 kts | 98° |
| 2026-04-30 20:26 | 48.82110 | 10.41981 | 24329 ft | 394 kts | 113° |
| 2026-04-30 20:27 | 48.79343 | 10.47657 | 25020 ft | 407 kts | 129° |
| 2026-04-30 20:27 | 48.75423 | 10.53895 | 25824 ft | 410 kts | 128° |
| 2026-04-30 20:28 | 48.71476 | 10.60206 | 26577 ft | 414 kts | 127° |
| 2026-04-30 20:28 | 48.67483 | 10.66570 | 27318 ft | 418 kts | 127° |
| 2026-04-30 20:29 | 48.63457 | 10.72966 | 28044 ft | 422 kts | 127° |
| 2026-04-30 20:30 | 48.57322 | 10.82685 | 29111 ft | 428 kts | 127° |
| 2026-04-30 20:30 | 48.51164 | 10.92544 | 30106 ft | 434 kts | 126° |
| 2026-04-30 20:31 | 48.44869 | 11.02517 | 30925 ft | 440 kts | 127° |
| 2026-04-30 20:32 | 48.38420 | 11.12503 | 31692 ft | 445 kts | 127° |
| 2026-04-30 20:32 | 48.34114 | 11.19166 | 32384 ft | 443 kts | 127° |
| 2026-04-30 20:33 | 48.31999 | 11.22444 | 32715 ft | 443 kts | 127° |
| 2026-04-30 20:33 | 48.27954 | 11.29297 | 33435 ft | 431 kts | 116° |
| 2026-04-30 20:33 | 48.26478 | 11.33094 | 33751 ft | 422 kts | 108° |
| 2026-04-30 20:34 | 48.24683 | 11.41386 | 34398 ft | 409 kts | 96° |
| 2026-04-30 20:34 | 48.23313 | 11.49858 | 34920 ft | 410 kts | 97° |
| 2026-04-30 20:35 | 48.22658 | 11.53840 | 35143 ft | 411 kts | 97° |
| 2026-04-30 20:35 | 48.21969 | 11.58002 | 35326 ft | 412 kts | 97° |
| 2026-04-30 20:35 | 48.20588 | 11.66344 | 35379 ft | 412 kts | 96° |
| 2026-04-30 20:36 | 48.19200 | 11.74669 | 35381 ft | 412 kts | 98° |
| 2026-04-30 20:36 | 48.16752 | 11.82607 | 35380 ft | 432 kts | 117° |
| 2026-04-30 20:37 | 48.14801 | 11.86099 | 35383 ft | 443 kts | 128° |
| 2026-04-30 20:37 | 48.10262 | 11.92356 | 35379 ft | 446 kts | 129° |
| 2026-04-30 20:38 | 48.05684 | 11.98631 | 35377 ft | 446 kts | 129° |
| 2026-04-30 20:38 | 48.01112 | 12.04914 | 35380 ft | 447 kts | 129° |
| 2026-04-30 20:39 | 47.94231 | 12.14338 | 35380 ft | 448 kts | 129° |
| 2026-04-30 20:40 | 47.87148 | 12.23508 | 35380 ft | 451 kts | 132° |
| 2026-04-30 20:40 | 47.82301 | 12.29439 | 35379 ft | 451 kts | 132° |
| 2026-04-30 20:41 | 47.75064 | 12.38389 | 35380 ft | 451 kts | 131° |
| 2026-04-30 20:41 | 47.70263 | 12.44392 | 35375 ft | 451 kts | 131° |
| 2026-04-30 20:42 | 47.65445 | 12.50371 | 35375 ft | 451 kts | 132° |
| 2026-04-30 20:43 | 47.58789 | 12.60006 | 35369 ft | 443 kts | 124° |
| 2026-04-30 20:43 | 47.54623 | 12.66662 | 35365 ft | 443 kts | 124° |
| 2026-04-30 20:44 | 47.48299 | 12.76733 | 35363 ft | 445 kts | 125° |
| 2026-04-30 20:45 | 47.39888 | 12.90055 | 35356 ft | 445 kts | 125° |
| 2026-04-30 20:45 | 47.35647 | 12.96741 | 35355 ft | 445 kts | 125° |
| 2026-04-30 20:46 | 47.27161 | 13.10096 | 35349 ft | 447 kts | 125° |
| 2026-04-30 20:47 | 47.20769 | 13.20112 | 35356 ft | 448 kts | 126° |
| 2026-04-30 20:48 | 47.14341 | 13.30122 | 35394 ft | 450 kts | 126° |
| 2026-04-30 20:48 | 47.10031 | 13.36822 | 35360 ft | 451 kts | 126° |
| 2026-04-30 20:49 | 47.05717 | 13.43519 | 35350 ft | 451 kts | 126° |
| 2026-04-30 20:50 | 46.99233 | 13.53534 | 35352 ft | 452 kts | 126° |
| 2026-04-30 20:50 | 46.94920 | 13.60177 | 35368 ft | 453 kts | 126° |
| 2026-04-30 20:51 | 46.90567 | 13.66868 | 35370 ft | 454 kts | 127° |
| 2026-04-30 20:51 | 46.84026 | 13.76898 | 35374 ft | 454 kts | 127° |
| 2026-04-30 20:52 | 46.79673 | 13.83574 | 35379 ft | 454 kts | 127° |
| 2026-04-30 20:53 | 46.73110 | 13.93547 | 35415 ft | 455 kts | 128° |
| 2026-04-30 20:53 | 46.68721 | 14.00205 | 35383 ft | 456 kts | 128° |
| 2026-04-30 20:54 | 46.62121 | 14.10208 | 35383 ft | 456 kts | 128° |
| 2026-04-30 20:55 | 46.55503 | 14.20172 | 35383 ft | 456 kts | 128° |
| 2026-04-30 20:55 | 46.51090 | 14.26800 | 35395 ft | 457 kts | 129° |
| 2026-04-30 20:56 | 46.44469 | 14.36742 | 35387 ft | 460 kts | 129° |
| 2026-04-30 20:57 | 46.37752 | 14.46763 | 35389 ft | 460 kts | 129° |
| 2026-04-30 20:57 | 46.33285 | 14.53407 | 35387 ft | 460 kts | 129° |
| 2026-04-30 20:58 | 46.26584 | 14.63347 | 35382 ft | 460 kts | 129° |
| 2026-04-30 20:58 | 46.22117 | 14.69959 | 35391 ft | 460 kts | 130° |
| 2026-04-30 20:59 | 46.15361 | 14.79899 | 35395 ft | 463 kts | 130° |
| 2026-04-30 21:00 | 46.06374 | 14.93114 | 35398 ft | 463 kts | 130° |
| 2026-04-30 21:01 | 45.99595 | 15.02999 | 35392 ft | 462 kts | 130° |
| 2026-04-30 21:02 | 45.92806 | 15.12880 | 35397 ft | 464 kts | 131° |
| 2026-04-30 21:02 | 45.88264 | 15.19490 | 35406 ft | 465 kts | 131° |
| 2026-04-30 21:03 | 45.83709 | 15.26099 | 35405 ft | 465 kts | 131° |
| 2026-04-30 21:03 | 45.79144 | 15.32687 | 35405 ft | 465 kts | 131° |
| 2026-04-30 21:04 | 45.74918 | 15.39638 | 35407 ft | 462 kts | 124° |
| 2026-04-30 21:04 | 45.68928 | 15.50477 | 35393 ft | 462 kts | 124° |
| 2026-04-30 21:05 | 45.64941 | 15.57689 | 35391 ft | 462 kts | 125° |
| 2026-04-30 21:05 | 45.60945 | 15.64887 | 35390 ft | 462 kts | 125° |
| 2026-04-30 21:06 | 45.56942 | 15.72067 | 35390 ft | 462 kts | 125° |
| 2026-04-30 21:06 | 45.53601 | 15.78034 | 35401 ft | 463 kts | 125° |
| 2026-04-30 21:07 | 45.48924 | 15.86373 | 35389 ft | 463 kts | 125° |
| 2026-04-30 21:07 | 45.44899 | 15.93546 | 35390 ft | 463 kts | 125° |
| 2026-04-30 21:08 | 45.41513 | 15.99566 | 35385 ft | 465 kts | 126° |
| 2026-04-30 21:08 | 45.37454 | 16.06734 | 35386 ft | 466 kts | 126° |
| 2026-04-30 21:09 | 45.33388 | 16.13922 | 35386 ft | 466 kts | 126° |
| 2026-04-30 21:09 | 45.29322 | 16.21107 | 35378 ft | 467 kts | 126° |
| 2026-04-30 21:10 | 45.25242 | 16.28273 | 35377 ft | 467 kts | 126° |
| 2026-04-30 21:10 | 45.21150 | 16.35440 | 35382 ft | 467 kts | 126° |
| 2026-04-30 21:11 | 45.17097 | 16.42548 | 35372 ft | 467 kts | 127° |
| 2026-04-30 21:11 | 45.12972 | 16.49742 | 35382 ft | 468 kts | 127° |
| 2026-04-30 21:12 | 45.08854 | 16.56898 | 35373 ft | 468 kts | 127° |
| 2026-04-30 21:12 | 45.04767 | 16.64002 | 35371 ft | 468 kts | 127° |
| 2026-04-30 21:13 | 45.00654 | 16.71130 | 35363 ft | 468 kts | 127° |
| 2026-04-30 21:13 | 44.96526 | 16.78267 | 35387 ft | 469 kts | 127° |
| 2026-04-30 21:14 | 44.92380 | 16.85389 | 35364 ft | 469 kts | 127° |
| 2026-04-30 21:14 | 44.88243 | 16.92495 | 35374 ft | 470 kts | 128° |
| 2026-04-30 21:15 | 44.84086 | 16.99625 | 35370 ft | 471 kts | 128° |
| 2026-04-30 21:15 | 44.79867 | 17.06683 | 35381 ft | 472 kts | 129° |
| 2026-04-30 21:16 | 44.75552 | 17.13635 | 35370 ft | 471 kts | 130° |
| 2026-04-30 21:16 | 44.73399 | 17.17076 | 35100 ft | 465 kts | 130° |
| 2026-04-30 21:16 | 44.71281 | 17.20470 | 34690 ft | 459 kts | 130° |
| 2026-04-30 21:17 | 44.69183 | 17.23849 | 33803 ft | 463 kts | 129° |
| 2026-04-30 21:17 | 44.67067 | 17.27275 | 33032 ft | 464 kts | 130° |
| 2026-04-30 21:17 | 44.64961 | 17.30684 | 32429 ft | 460 kts | 130° |
| 2026-04-30 21:17 | 44.62873 | 17.34057 | 31869 ft | 456 kts | 130° |
| 2026-04-30 21:18 | 44.60803 | 17.37417 | 31333 ft | 452 kts | 130° |
| 2026-04-30 21:18 | 44.58768 | 17.40738 | 30840 ft | 448 kts | 130° |
| 2026-04-30 21:18 | 44.56745 | 17.44045 | 30334 ft | 443 kts | 130° |
| 2026-04-30 21:18 | 44.54751 | 17.47308 | 29755 ft | 439 kts | 130° |
| 2026-04-30 21:19 | 44.52769 | 17.50548 | 29185 ft | 435 kts | 130° |
| 2026-04-30 21:19 | 44.50810 | 17.53739 | 28625 ft | 431 kts | 130° |
| 2026-04-30 21:19 | 44.48856 | 17.56905 | 28089 ft | 427 kts | 130° |
| 2026-04-30 21:19 | 44.46917 | 17.60038 | 27533 ft | 423 kts | 130° |
| 2026-04-30 21:20 | 44.44998 | 17.63138 | 27003 ft | 419 kts | 130° |
| 2026-04-30 21:20 | 44.43075 | 17.66245 | 26024 ft | 427 kts | 130° |
| 2026-04-30 21:20 | 44.41133 | 17.69384 | 25327 ft | 427 kts | 130° |
| 2026-04-30 21:20 | 44.39216 | 17.72479 | 24750 ft | 424 kts | 129° |
| 2026-04-30 21:21 | 44.37446 | 17.75802 | 24201 ft | 418 kts | 117° |
| 2026-04-30 21:21 | 44.36447 | 17.79515 | 23479 ft | 412 kts | 99° |
| 2026-04-30 21:21 | 44.37133 | 17.87230 | 21994 ft | 400 kts | 61° |
| 2026-04-30 21:22 | 44.38476 | 17.90609 | 21348 ft | 396 kts | 57° |
| 2026-04-30 21:22 | 44.42592 | 18.00376 | 19658 ft | 386 kts | 57° |
| 2026-04-30 21:23 | 44.44018 | 18.03523 | 19147 ft | 380 kts | 49° |
| 2026-04-30 21:23 | 44.45965 | 18.05942 | 18646 ft | 373 kts | 30° |
| 2026-04-30 21:23 | 44.50885 | 18.07259 | 17527 ft | 365 kts | 349° |
| 2026-04-30 21:24 | 44.53238 | 18.06022 | 17004 ft | 364 kts | 329° |
| 2026-04-30 21:24 | 44.55123 | 18.03678 | 16482 ft | 365 kts | 309° |
| 2026-04-30 21:24 | 44.56293 | 18.00514 | 15970 ft | 367 kts | 288° |
| 2026-04-30 21:24 | 44.56585 | 17.96967 | 15454 ft | 371 kts | 268° |
| 2026-04-30 21:25 | 44.54698 | 17.90263 | 14394 ft | 375 kts | 237° |
| 2026-04-30 21:25 | 44.52950 | 17.87561 | 13895 ft | 375 kts | 220° |
| 2026-04-30 21:25 | 44.50746 | 17.85653 | 13358 ft | 373 kts | 202° |
| 2026-04-30 21:26 | 44.45709 | 17.85021 | 12264 ft | 365 kts | 168° |
| 2026-04-30 21:26 | 44.43211 | 17.85653 | 11703 ft | 363 kts | 168° |
| 2026-04-30 21:27 | 44.38286 | 17.86934 | 10659 ft | 357 kts | 167° |
| 2026-04-30 21:27 | 44.35856 | 17.87565 | 10142 ft | 354 kts | 167° |
| 2026-04-30 21:27 | 44.33444 | 17.88189 | 9583 ft | 351 kts | 167° |
| 2026-04-30 21:28 | 44.28878 | 17.90149 | 8763 ft | 337 kts | 146° |
| 2026-04-30 21:28 | 44.27031 | 17.92082 | 8851 ft | 336 kts | 133° |
| 2026-04-30 21:28 | 44.23915 | 17.96928 | 8869 ft | 335 kts | 128° |
| 2026-04-30 21:29 | 44.22373 | 17.99372 | 8868 ft | 336 kts | 128° |
| 2026-04-30 21:29 | 44.17313 | 18.05945 | 7998 ft | 336 kts | 156° |
| 2026-04-30 21:30 | 44.12793 | 18.06745 | 7619 ft | 316 kts | 174° |
| 2026-04-30 21:31 | 44.06596 | 18.07155 | 7080 ft | 283 kts | 174° |
| 2026-04-30 21:31 | 44.02712 | 18.07373 | 6541 ft | 272 kts | 174° |
| 2026-04-30 21:32 | 43.99080 | 18.07552 | 6269 ft | 250 kts | 174° |
| 2026-04-30 21:32 | 43.97378 | 18.07628 | 6122 ft | 241 kts | 174° |
| 2026-04-30 21:32 | 43.95717 | 18.07749 | 5802 ft | 237 kts | 170° |
| 2026-04-30 21:32 | 43.94090 | 18.08023 | 5558 ft | 233 kts | 168° |
| 2026-04-30 21:33 | 43.92514 | 18.08469 | 5544 ft | 225 kts | 150° |
| 2026-04-30 21:33 | 43.90575 | 18.11298 | 5521 ft | 195 kts | 111° |
| 2026-04-30 21:33 | 43.89982 | 18.12953 | 5309 ft | 191 kts | 111° |
| 2026-04-30 21:34 | 43.89363 | 18.14640 | 4711 ft | 200 kts | 113° |
| 2026-04-30 21:34 | 43.88099 | 18.18037 | 3984 ft | 193 kts | 115° |
| 2026-04-30 21:34 | 43.87499 | 18.19646 | 3746 ft | 183 kts | 114° |
| 2026-04-30 21:35 | 43.86933 | 18.21164 | 3535 ft | 172 kts | 115° |
| 2026-04-30 21:35 | 43.86400 | 18.22573 | 3351 ft | 156 kts | 116° |
| 2026-04-30 21:35 | 43.85893 | 18.23847 | 3195 ft | 146 kts | 113° |
| 2026-04-30 21:35 | 43.85429 | 18.25065 | 3015 ft | 141 kts | 109° |
| 2026-04-30 21:36 | 43.85036 | 18.26302 | 2818 ft | 139 kts | 111° |
| 2026-04-30 21:36 | 43.84588 | 18.27499 | 2613 ft | 140 kts | 115° |
| 2026-04-30 21:37 | 43.83258 | 18.31028 | 1803 ft | 138 kts | 115° |
| 2026-04-30 21:37 | 43.82813 | 18.32192 | 1668 ft | 135 kts | 113° |
| 2026-04-30 21:37 | 43.82437 | 18.33208 | 1675 ft | 97 kts | 117° |
| 2026-04-30 21:37 | 43.82204 | 18.33829 | 1693 ft | 48 kts | 118° |
| 2026-04-30 21:38 | 43.82088 | 18.34145 | 1694 ft | 34 kts | 116° |
| 2026-04-30 21:38 | 43.81988 | 18.34418 | 1702 ft | 29 kts | 117° |
| 2026-04-30 21:38 | 43.81957 | 18.34576 | 1708 ft | 9 kts | 60° |
| 2026-04-30 21:38 | 43.82003 | 18.34619 | 1708 ft | 7 kts | 11° |
| 2026-04-30 21:39 | 43.82055 | 18.34617 | 1707 ft | 8 kts | 348° |
| 2026-04-30 21:39 | 43.82103 | 18.34569 | 1708 ft | 9 kts | 308° |
| 2026-04-30 21:39 | 43.82137 | 18.34484 | 1702 ft | 12 kts | 297° |
| 2026-04-30 21:39 | 43.82190 | 18.34344 | 1700 ft | 20 kts | 297° |
| 2026-04-30 21:40 | 43.82257 | 18.34162 | 1696 ft | 23 kts | 297° |
| 2026-04-30 21:40 | 43.82336 | 18.33950 | 1692 ft | 26 kts | 297° |
| 2026-04-30 21:40 | 43.82408 | 18.33759 | 1689 ft | 15 kts | 297° |
| 2026-04-30 21:40 | 43.82461 | 18.33620 | 1684 ft | 17 kts | 298° |
| 2026-04-30 21:41 | 43.82500 | 18.33587 | 1681 ft | 6 kts | 32° |
| 2026-04-30 21:41 | 43.82527 | 18.33613 | 1685 ft | 5 kts | 31° |
| 2026-04-30 21:41 | 43.82547 | 18.33627 | 1687 ft | 0 kts | 24° |